Time;durP1;ratioP1;P1;durP2;ratioP2;P2;SDS_P1;SDS_P2;PMS_P1;PMS_P2;Temp;Humidity;BMP_temperature;BMP_pressure;BME280_temperature;BME280_humidity;BME280_pressure;Samples;Min_cycle;Max_cycle;Signal;HPM_P1;HPM_P2
2022/08/19 00:02:14;;;;;;;4.57;3.03;;;;;;;25.92;66.76;100377.00;5076468;28;20056;-71
2022/08/19 00:04:42;;;;;;;4.25;2.78;;;;;;;25.95;66.83;100368.50;5076876;28;20059;-71
2022/08/19 00:07:09;;;;;;;5.53;3.53;;;;;;;25.96;66.57;100362.88;5075626;28;20048;-71
2022/08/19 00:09:37;;;;;;;5.25;3.08;;;;;;;25.97;66.47;100372.72;5076981;28;20063;-71
2022/08/19 00:12:04;;;;;;;6.45;3.00;;;;;;;25.99;66.09;100376.06;5076730;28;20048;-71
2022/08/19 00:14:32;;;;;;;6.43;3.15;;;;;;;25.99;66.21;100375.22;5076754;28;20044;-71
2022/08/19 00:17:00;;;;;;;4.57;3.03;;;;;;;26.00;66.00;100383.16;5076822;28;20515;-71
2022/08/19 00:19:28;;;;;;;4.82;2.72;;;;;;;26.01;66.07;100384.88;5076942;28;20372;-71
2022/08/19 00:21:56;;;;;;;4.35;2.55;;;;;;;26.03;66.05;100374.66;5075516;28;20502;-71
2022/08/19 00:24:23;;;;;;;5.60;2.80;;;;;;;26.03;65.90;100362.97;5076891;28;20415;-71
2022/08/19 00:26:51;;;;;;;5.10;2.60;;;;;;;26.03;65.77;100344.84;5076511;28;20045;-71
2022/08/19 00:29:20;;;;;;;4.07;2.58;;;;;;;26.04;65.67;100326.69;5076358;28;20045;-71
2022/08/19 00:31:48;;;;;;;5.68;2.40;;;;;;;26.05;65.78;100318.38;5076544;28;20052;-71
2022/08/19 00:34:17;;;;;;;6.43;3.08;;;;;;;26.06;65.56;100324.63;5075659;28;20064;-71
2022/08/19 00:36:45;;;;;;;4.43;2.78;;;;;;;26.05;65.44;100333.78;5076441;28;20048;-71
2022/08/19 00:39:13;;;;;;;3.70;2.70;;;;;;;26.07;65.41;100350.72;5075688;28;20051;-71
2022/08/19 00:41:43;;;;;;;3.55;2.60;;;;;;;26.07;65.42;100353.44;5076106;28;20079;-71
2022/08/19 00:44:14;;;;;;;4.97;2.42;;;;;;;26.07;65.33;100365.13;5076306;28;20376;-71
2022/08/19 00:46:44;;;;;;;4.53;2.83;;;;;;;26.08;65.15;100365.97;5076321;28;20044;-71
2022/08/19 00:49:30;;;;;;;4.63;2.33;;;;;;;26.07;65.17;100373.25;5075024;28;20094;-71
2022/08/19 00:52:13;;;;;;;4.32;2.50;;;;;;;26.09;65.01;100382.06;5076420;28;20056;-71
2022/08/19 00:54:41;;;;;;;;;;;;;;;26.09;65.08;100375.78;5076517;28;20045;-71
2022/08/19 00:57:14;;;;;;;4.38;2.40;;;;;;;26.09;65.21;100384.78;5075999;28;20410;-71
2022/08/19 00:59:46;;;;;;;5.32;2.78;;;;;;;26.09;65.09;100384.78;5076086;28;20052;-71
2022/08/19 01:02:30;;;;;;;6.97;2.35;;;;;;;26.11;65.02;100390.00;5075788;28;20044;-72
2022/08/19 01:05:00;;;;;;;4.60;2.90;;;;;;;26.10;64.91;100381.03;5075811;28;20048;-71
2022/08/19 01:07:27;;;;;;;8.90;2.72;;;;;;;26.12;65.02;100383.56;5075986;28;20051;-71
2022/08/19 01:10:03;;;;;;;3.35;2.50;;;;;;;26.12;65.05;100378.97;5074422;28;20049;-71
2022/08/19 01:12:31;;;;;;;3.10;2.47;;;;;;;26.12;64.76;100370.81;5075636;28;20051;-71
2022/08/19 01:14:59;;;;;;;3.22;2.10;;;;;;;26.12;65.01;100357.25;5074809;28;20055;-71
2022/08/19 01:17:27;;;;;;;5.13;2.50;;;;;;;26.13;65.02;100347.28;5075538;28;20044;-71
2022/08/19 01:19:54;;;;;;;4.72;2.70;;;;;;;26.11;64.94;100350.16;5075394;28;20048;-71
2022/08/19 01:22:34;;;;;;;3.05;2.50;;;;;;;26.13;64.82;100350.81;5074277;28;20392;-71
2022/08/19 01:25:02;;;;;;;3.72;2.35;;;;;;;26.13;64.79;100356.25;5075378;28;20048;-71
2022/08/19 01:27:44;;;;;;;3.90;2.45;;;;;;;26.14;64.79;100359.81;5073934;28;20048;-71
2022/08/19 01:30:20;;;;;;;5.93;2.20;;;;;;;26.15;64.86;100361.47;5075342;28;20040;-71
2022/08/19 01:32:49;;;;;;;4.20;3.00;;;;;;;26.16;64.84;100362.31;5075194;28;20040;-71
2022/08/19 01:35:17;;;;;;;4.05;2.30;;;;;;;26.16;64.77;100365.03;5075366;28;20057;-71
2022/08/19 01:37:49;;;;;;;5.82;2.80;;;;;;;26.16;64.66;100356.88;5075057;28;20376;-71
2022/08/19 01:40:20;;;;;;;3.30;2.08;;;;;;;26.16;64.76;100349.59;5075005;28;20041;-71
2022/08/19 01:42:51;;;;;;;5.07;2.58;;;;;;;26.17;64.73;100353.13;5074642;28;20071;-72
2022/08/19 01:45:21;;;;;;;4.32;2.08;;;;;;;26.16;64.59;100346.88;5073688;28;20048;-71
2022/08/19 01:47:49;;;;;;;4.03;2.25;;;;;;;26.17;64.81;100353.13;5074722;28;20044;-71
2022/08/19 01:50:31;;;;;;;4.65;2.58;;;;;;;26.18;64.57;100341.28;5074055;28;20056;-71
2022/08/19 01:53:00;;;;;;;4.80;2.55;;;;;;;26.17;64.56;100337.72;5074885;28;20044;-71
2022/08/19 01:55:35;;;;;;;4.75;2.75;;;;;;;26.18;64.58;100335.84;5074568;28;20044;-71
2022/08/19 01:58:16;;;;;;;5.45;2.38;;;;;;;26.18;64.49;100330.44;5073860;28;20519;-72
2022/08/19 02:00:45;;;;;;;3.33;2.35;;;;;;;26.17;64.78;100315.16;5074970;28;20394;-72
2022/08/19 02:03:12;;;;;;;4.57;2.47;;;;;;;26.16;64.48;100314.31;5074520;28;20079;-71
2022/08/19 02:05:41;;;;;;;4.13;2.80;;;;;;;26.18;64.60;100319.56;5074421;28;20403;-71
2022/08/19 02:08:09;;;;;;;4.63;2.70;;;;;;;26.17;64.40;100313.31;5074665;28;20051;-72
2022/08/19 02:10:43;;;;;;;4.43;2.55;;;;;;;26.18;64.34;100292.44;5074866;28;20495;-71
2022/08/19 02:13:13;;;;;;;6.07;3.05;;;;;;;26.17;64.37;100290.75;5074718;28;20040;-71
2022/08/19 02:15:41;;;;;;;5.47;2.67;;;;;;;26.17;63.93;100288.03;5073888;28;20051;-71
2022/08/19 02:18:08;;;;;;;4.57;2.97;;;;;;;26.17;63.92;100298.88;5074528;28;20052;-71
2022/08/19 02:20:38;;;;;;;5.80;2.08;;;;;;;26.16;63.72;100300.75;5074566;28;20044;-71
2022/08/19 02:23:06;;;;;;;4.32;2.10;;;;;;;26.16;63.60;100305.34;5073029;28;20048;-71
2022/08/19 02:25:44;;;;;;;4.18;2.30;;;;;;;26.15;63.36;100315.34;5074572;28;20107;-71
2022/08/19 02:28:11;;;;;;;4.25;2.42;;;;;;;26.14;63.15;100306.38;5074320;28;20055;-71
2022/08/19 02:30:46;;;;;;;5.35;2.33;;;;;;;26.14;63.38;100295.53;5074156;28;20051;-71
2022/08/19 02:33:13;;;;;;;4.15;2.00;;;;;;;26.16;63.06;100289.91;5073541;28;20391;-71
2022/08/19 02:35:45;;;;;;;2.60;1.52;;;;;;;26.14;62.97;100276.53;5074335;28;20056;-71
2022/08/19 02:38:26;;;;;;;4.25;1.85;;;;;;;26.15;62.53;100274.66;5072488;28;20052;-71
2022/08/19 02:41:02;;;;;;;3.25;1.60;;;;;;;26.15;62.22;100293.66;5073730;28;20036;-71
2022/08/19 02:43:31;;;;;;;3.28;1.95;;;;;;;26.15;62.09;100293.66;5074339;28;20044;-71
2022/08/19 02:46:01;;;;;;;5.05;1.85;;;;;;;26.14;61.92;100291.97;5073977;28;20468;-71
2022/08/19 02:48:29;;;;;;;4.20;1.80;;;;;;;26.14;61.59;100306.38;5074062;28;20060;-71
2022/08/19 02:50:57;;;;;;;3.42;1.58;;;;;;;26.14;61.29;100303.66;5073758;28;20044;-71
2022/08/19 02:53:27;;;;;;;3.25;2.15;;;;;;;26.14;61.21;100308.25;5074294;28;20044;-71
2022/08/19 02:55:54;;;;;;;4.60;1.98;;;;;;;26.13;61.40;100295.72;5073994;28;20507;-71
2022/08/19 02:58:23;;;;;;;3.20;1.52;;;;;;;26.12;61.04;100292.16;5074023;28;20376;-71
2022/08/19 03:00:53;;;;;;;5.65;1.92;;;;;;;26.12;60.89;100278.59;5073743;28;20098;-71
2022/08/19 03:03:21;;;;;;;3.67;1.55;;;;;;;26.11;60.97;100276.91;5073650;28;20071;-71
2022/08/19 03:05:49;;;;;;;4.70;1.83;;;;;;;26.11;61.12;100265.22;5073550;28;20056;-71
2022/08/19 03:08:23;;;;;;;4.53;1.65;;;;;;;26.10;60.91;100260.84;5074040;28;20052;-71
2022/08/19 03:10:52;;;;;;;4.25;2.22;;;;;;;26.09;61.00;100265.44;5073842;28;20060;-71
2022/08/19 03:13:20;;;;;;;5.80;2.10;;;;;;;26.08;60.89;100261.00;5072756;28;20404;-71
2022/08/19 03:15:48;;;;;;;3.53;2.03;;;;;;;26.07;60.71;100264.75;5073647;28;20049;-71
2022/08/19 03:18:16;;;;;;;4.43;2.03;;;;;;;26.06;60.62;100256.81;5073888;28;20048;-71
2022/08/19 03:20:49;;;;;;;3.70;1.75;;;;;;;26.05;60.45;100257.81;5073631;28;20041;-71
2022/08/19 03:23:17;;;;;;;3.22;2.25;;;;;;;26.03;60.27;100255.31;5073921;28;20044;-71
2022/08/19 03:25:46;;;;;;;4.22;1.73;;;;;;;26.04;60.21;100259.69;5073764;28;20064;-71
2022/08/19 03:28:29;;;;;;;4.47;2.30;;;;;;;26.03;60.27;100247.19;5077791;28;20045;-71
2022/08/19 03:31:05;;;;;;;4.75;1.80;;;;;;;26.03;60.13;100246.34;5076609;28;20380;-71
2022/08/19 03:33:52;;;;;;;4.93;1.75;;;;;;;26.02;60.34;100240.09;5077589;28;20044;-71
2022/08/19 03:36:23;;;;;;;2.72;1.67;;;;;;;26.03;60.32;100252.59;5077409;28;20048;-71
2022/08/19 03:38:56;;;;;;;3.20;1.45;;;;;;;26.02;60.49;100245.50;5077669;28;20048;-71
2022/08/19 03:41:32;;;;;;;2.20;1.33;;;;;;;26.02;60.41;100256.34;5077859;28;20341;-71
2022/08/19 03:44:18;;;;;;;3.83;1.88;;;;;;;26.03;60.42;100271.59;5077406;28;20049;-71
2022/08/19 03:46:48;;;;;;;3.78;1.90;;;;;;;26.04;60.42;100286.00;5077451;28;20364;-71
2022/08/19 03:49:16;;;;;;;4.28;1.92;;;;;;;26.05;60.71;100284.94;5077158;28;20056;-71
2022/08/19 03:51:46;;;;;;;4.72;2.10;;;;;;;26.06;60.67;100306.47;5077706;28;20373;-71
2022/08/19 03:54:16;;;;;;;4.80;1.85;;;;;;;26.07;60.78;100307.31;5076350;28;20375;-71
2022/08/19 03:56:44;;;;;;;3.85;1.80;;;;;;;26.08;60.64;100307.13;5075922;28;20048;-71
2022/08/19 03:59:18;;;;;;;3.78;1.70;;;;;;;26.08;60.59;100309.84;5077145;28;20048;-71
2022/08/19 04:01:45;;;;;;;3.35;1.58;;;;;;;26.09;60.75;100313.38;5077286;28;20496;-71
2022/08/19 04:04:13;;;;;;;8.63;1.85;;;;;;;26.08;60.87;100315.25;5077051;28;20053;-71
2022/08/19 04:06:40;;;;;;;4.97;2.35;;;;;;;26.09;60.95;100318.81;5077012;28;20048;-71
2022/08/19 04:09:10;;;;;;;7.00;2.13;;;;;;;26.09;61.04;100318.81;5075506;28;20059;-71
2022/08/19 04:11:44;;;;;;;3.28;1.77;;;;;;;26.08;60.97;100326.13;5076826;28;20045;-71
2022/08/19 04:14:14;;;;;;;4.85;2.00;;;;;;;26.08;61.02;100336.97;5077019;28;20049;-71
2022/08/19 04:16:44;;;;;;;6.05;2.03;;;;;;;26.07;61.00;100329.88;5075634;28;20392;-71
2022/08/19 04:19:12;;;;;;;4.03;2.00;;;;;;;26.08;61.13;100323.41;5076940;28;20056;-71
2022/08/19 04:21:39;;;;;;;4.47;2.00;;;;;;;26.06;61.06;100317.34;5076680;28;20499;-71
2022/08/19 04:24:09;;;;;;;5.25;1.83;;;;;;;26.06;61.14;100317.34;5076444;28;20048;-71
2022/08/19 04:26:37;;;;;;;5.20;2.28;;;;;;;26.05;61.04;100312.94;5076585;28;20044;-71
2022/08/19 04:29:08;;;;;;;4.70;2.10;;;;;;;26.06;61.15;100321.94;5075343;28;20504;-71
2022/08/19 04:31:40;;;;;;;4.25;1.83;;;;;;;26.06;61.22;100320.06;5076746;28;20051;-71
2022/08/19 04:34:10;;;;;;;3.03;1.67;;;;;;;26.06;61.29;100316.50;5076613;28;20044;-71
2022/08/19 04:36:41;;;;;;;7.85;2.17;;;;;;;26.05;61.31;100331.94;5076473;28;20047;-71
2022/08/19 04:39:12;;;;;;;4.20;2.30;;;;;;;26.07;61.13;100326.31;5074366;28;20048;-71
2022/08/19 04:44:26;;;;;;;3.30;1.67;;;;;;;26.05;61.29;100345.50;5076261;28;20052;-71
2022/08/19 04:46:54;;;;;;;5.65;2.08;;;;;;;26.06;61.33;100357.19;5076367;28;20375;-71
2022/08/19 04:49:22;;;;;;;3.78;1.75;;;;;;;26.06;61.26;100357.19;5076128;28;20048;-71
2022/08/19 04:51:53;;;;;;;5.25;2.00;;;;;;;26.07;61.46;100348.00;5076463;28;20041;-71
2022/08/19 04:54:24;;;;;;;3.65;1.77;;;;;;;26.07;61.47;100356.16;5076259;28;20376;-72
2022/08/19 04:57:09;;;;;;;5.47;1.75;;;;;;;26.07;61.33;100357.00;5075975;28;20040;-71
2022/08/19 04:59:38;;;;;;;4.20;1.97;;;;;;;26.07;61.40;100346.13;5076210;28;20487;-71
2022/08/19 05:02:08;;;;;;;5.30;2.05;;;;;;;26.07;61.81;100321.72;5076032;28;20052;-71
2022/08/19 05:04:38;;;;;;;6.20;2.17;;;;;;;26.06;61.88;100311.91;5075722;28;20056;-71
2022/08/19 05:07:09;;;;;;;5.30;2.47;;;;;;;26.04;61.75;100341.09;5076219;28;20055;-71
2022/08/19 05:09:37;;;;;;;6.95;2.35;;;;;;;26.03;61.82;100347.53;5075405;28;20044;-71
2022/08/19 05:12:26;;;;;;;5.53;2.50;;;;;;;26.01;61.56;100349.63;5075498;28;20043;-71
2022/08/19 05:14:56;;;;;;;6.60;2.17;;;;;;;26.02;61.63;100354.00;5075979;28;20060;-71
2022/08/19 05:17:26;;;;;;;5.35;2.40;;;;;;;26.02;61.58;100359.44;5074166;28;20401;-71
2022/08/19 05:22:46;;;;;;;6.15;2.53;;;;;;;26.01;61.46;100354.19;5075298;28;20044;-71
2022/08/19 05:25:20;;;;;;;6.35;2.60;;;;;;;26.01;61.92;100340.63;5075513;28;20373;-71
2022/08/19 05:27:48;;;;;;;6.88;2.05;;;;;;;25.99;61.52;100337.25;5075609;28;20044;-71
2022/08/19 05:30:17;;;;;;;4.53;2.03;;;;;;;25.96;61.38;100338.47;5074858;28;20051;-71
2022/08/19 05:32:44;;;;;;;4.55;2.15;;;;;;;25.94;61.35;100340.53;5074733;28;20040;-71
2022/08/19 05:35:12;;;;;;;7.05;2.35;;;;;;;25.93;61.26;100336.16;5075389;28;20051;-71
2022/08/19 05:37:40;;;;;;;4.13;1.70;;;;;;;25.91;61.24;100340.91;5074238;28;20044;-71
2022/08/19 05:40:08;;;;;;;4.72;2.05;;;;;;;25.91;61.18;100350.91;5075674;28;20071;-71
2022/08/19 05:42:55;;;;;;;4.30;1.75;;;;;;;25.89;61.21;100354.66;5075095;28;20040;-71
2022/08/19 05:45:23;;;;;;;3.80;1.50;;;;;;;25.87;60.94;100351.28;5074616;28;20491;-72
2022/08/19 05:47:50;;;;;;;4.70;1.75;;;;;;;25.86;60.73;100359.63;5074679;28;20040;-71
2022/08/19 05:50:17;;;;;;;2.65;1.38;;;;;;;25.85;60.63;100366.91;5074275;28;20357;-71
2022/08/19 05:52:45;;;;;;;2.65;1.50;;;;;;;25.84;60.63;100369.78;5075052;28;20040;-71
2022/08/19 05:55:19;;;;;;;3.05;1.70;;;;;;;25.86;60.62;100368.59;5074648;28;20047;-72
2022/08/19 05:57:47;;;;;;;3.08;1.52;;;;;;;25.85;60.51;100355.22;5075240;28;20480;-71
2022/08/19 06:00:15;;;;;;;4.63;1.52;;;;;;;25.85;60.50;100356.06;5073016;28;20048;-72
2022/08/19 06:02:50;;;;;;;5.20;2.10;;;;;;;25.86;60.23;100384.03;5075142;28;20059;-72
2022/08/19 06:05:19;;;;;;;6.40;1.70;;;;;;;25.85;60.29;100398.63;5074555;28;20054;-71
2022/08/19 06:07:47;;;;;;;3.25;1.60;;;;;;;25.86;60.19;100400.28;5074252;28;20059;-72
2022/08/19 06:10:14;;;;;;;5.05;1.95;;;;;;;25.85;60.25;100418.44;5073698;28;20051;-71
2022/08/19 06:12:41;;;;;;;2.70;1.30;;;;;;;25.85;60.56;100414.88;5073758;28;20045;-72
2022/08/19 06:15:13;;;;;;;3.35;1.80;;;;;;;25.85;60.81;100417.59;5074582;28;20051;-72
2022/08/19 06:17:41;;;;;;;4.88;1.83;;;;;;;25.84;60.84;100426.75;5074676;28;20498;-72
2022/08/19 06:20:13;;;;;;;5.35;1.70;;;;;;;25.83;60.73;100423.19;5074062;28;20399;-71
2022/08/19 06:22:44;;;;;;;3.05;1.58;;;;;;;25.83;60.50;100425.91;5074236;28;20049;-71
2022/08/19 06:25:14;;;;;;;5.85;2.20;;;;;;;25.81;60.16;100416.28;5074823;28;20052;-72
2022/08/19 06:27:41;;;;;;;2.83;1.60;;;;;;;25.80;59.98;100417.28;5074591;28;20048;-72
2022/08/19 06:30:29;;;;;;;5.05;1.85;;;;;;;25.79;59.69;100423.75;5074217;28;20488;-71
2022/08/19 06:32:56;;;;;;;3.83;1.60;;;;;;;25.77;59.67;100420.34;5073776;28;20047;-71
2022/08/19 06:35:25;;;;;;;2.78;1.33;;;;;;;25.76;59.60;100434.91;5073793;28;20067;-71
2022/08/19 06:37:52;;;;;;;3.60;1.63;;;;;;;25.76;59.45;100445.75;5072684;28;20051;-71
2022/08/19 06:40:20;;;;;;;3.08;1.83;;;;;;;25.76;59.53;100445.75;5074559;28;20047;-71
2022/08/19 06:42:48;;;;;;;5.55;1.50;;;;;;;25.75;59.13;100446.81;5072478;28;20051;-71
2022/08/19 06:45:24;;;;;;;3.65;1.40;;;;;;;25.75;58.95;100452.22;5072327;28;20053;-71
2022/08/19 06:48:02;;;;;;;2.38;1.23;;;;;;;25.74;58.57;100461.38;5074527;28;20456;-71
2022/08/19 06:50:29;;;;;;;4.00;1.63;;;;;;;25.72;58.39;100450.72;5073762;28;20048;-71
2022/08/19 06:52:57;;;;;;;3.65;1.45;;;;;;;25.72;57.98;100458.84;5073679;28;20047;-71
2022/08/19 06:55:30;;;;;;;3.13;1.50;;;;;;;25.72;58.03;100463.44;5074331;28;20053;-71
2022/08/19 06:58:03;;;;;;;2.92;1.13;;;;;;;25.72;57.71;100468.84;5072256;28;20496;-71
2022/08/19 07:00:31;;;;;;;3.75;1.70;;;;;;;25.72;57.66;100475.13;5073772;28;20044;-71
2022/08/19 07:03:00;;;;;;;2.97;1.30;;;;;;;25.72;57.49;100466.13;5073725;28;20515;-71
2022/08/19 07:05:39;;;;;;;3.58;1.35;;;;;;;25.73;57.55;100467.84;5073489;28;20044;-72
2022/08/19 07:08:12;;;;;;;1.80;1.20;;;;;;;25.72;57.38;100469.69;5056460;28;20518;-72
2022/08/19 07:10:43;;;;;;;5.13;1.83;;;;;;;25.73;57.74;100467.84;5073763;28;20055;-72
2022/08/19 07:13:11;;;;;;;2.63;1.10;;;;;;;25.71;57.65;100462.59;5073275;28;20039;-72
2022/08/19 07:15:38;;;;;;;2.25;1.10;;;;;;;25.71;57.80;100440.91;5073330;28;20045;-72
2022/08/19 07:18:06;;;;;;;2.10;1.20;;;;;;;25.72;57.67;100447.16;5074181;28;20040;-71
2022/08/19 07:20:39;;;;;;;2.45;1.35;;;;;;;25.71;57.69;100454.47;5072261;28;20056;-72
2022/08/19 07:23:09;;;;;;;2.47;1.02;;;;;;;25.72;57.81;100445.28;5072618;28;20048;-72
2022/08/19 07:25:43;;;;;;;4.38;1.40;;;;;;;25.71;57.68;100451.75;5073915;28;20056;-72
2022/08/19 07:28:10;;;;;;;2.22;1.20;;;;;;;25.73;57.69;100459.72;5073205;28;20377;-72
2022/08/19 07:30:51;;;;;;;2.35;0.98;;;;;;;25.73;57.81;100465.13;5071837;28;20056;-72
2022/08/19 07:33:19;;;;;;;2.72;1.15;;;;;;;25.73;57.91;100478.69;5073134;28;20036;-72
2022/08/19 07:35:46;;;;;;;2.85;1.27;;;;;;;25.72;57.86;100482.41;5073744;28;20044;-72
2022/08/19 07:38:15;;;;;;;2.08;1.00;;;;;;;25.72;57.87;100485.13;5072173;28;20068;-71
2022/08/19 07:40:45;;;;;;;1.85;0.90;;;;;;;25.71;57.64;100492.41;5073098;28;20056;-72
2022/08/19 07:43:12;;;;;;;2.00;1.10;;;;;;;25.72;57.79;100494.09;5073079;28;20045;-72
2022/08/19 07:45:44;;;;;;;2.22;1.00;;;;;;;25.71;57.93;100491.56;5073676;28;20464;-72
2022/08/19 07:48:12;;;;;;;2.88;1.10;;;;;;;25.71;57.76;100497.84;5073522;28;20051;-71
2022/08/19 07:50:40;;;;;;;1.42;0.90;;;;;;;25.72;58.09;100493.25;5073259;28;20048;-71
2022/08/19 07:53:07;;;;;;;2.55;1.38;;;;;;;25.72;57.97;100490.53;5072916;28;20040;-71
2022/08/19 07:55:34;;;;;;;1.70;1.27;;;;;;;25.72;57.93;100495.97;5073209;28;20055;-71
2022/08/19 07:58:15;;;;;;;1.60;1.00;;;;;;;25.72;57.98;100495.97;5073805;28;20060;-71
2022/08/19 08:00:44;;;;;;;2.00;1.23;;;;;;;25.71;57.98;100492.41;5073280;28;20368;-71
2022/08/19 08:03:12;;;;;;;2.00;1.17;;;;;;;25.72;58.13;100485.97;5071713;28;20052;-71
2022/08/19 08:11:19;;;;;;;2.63;1.10;;;;;;;25.74;58.26;100474.94;5072767;28;20045;-72
2022/08/19 08:13:49;;;;;;;1.77;1.00;;;;;;;25.75;58.43;100476.63;5074882;28;20040;-72
2022/08/19 08:16:37;;;;;;;1.95;0.98;;;;;;;25.76;57.90;100481.00;5075386;28;20415;-72
2022/08/19 08:19:06;;;;;;;1.60;1.00;;;;;;;25.76;57.80;100484.56;5077024;28;20056;-72
2022/08/19 08:21:50;;;;;;;1.50;0.90;;;;;;;25.78;57.97;100481.72;5075916;28;20057;-71
2022/08/19 08:24:18;;;;;;;5.00;1.42;;;;;;;25.77;57.69;100485.44;5076723;28;20044;-71
2022/08/19 08:26:46;;;;;;;2.28;1.10;;;;;;;25.65;57.71;100482.31;5076928;28;20491;-71
2022/08/19 08:29:23;;;;;;;1.98;1.15;;;;;;;25.47;58.62;100473.63;5076730;28;20051;-73
2022/08/19 08:31:52;;;;;;;3.20;1.33;;;;;;;25.30;59.32;100471.03;5076704;28;20044;-71
2022/08/19 08:34:26;;;;;;;2.53;1.45;;;;;;;25.25;60.48;100461.78;5075082;28;20036;-72
2022/08/19 08:36:53;;;;;;;4.82;1.48;;;;;;;25.18;60.76;100469.75;5076167;28;20049;-72
2022/08/19 08:39:21;;;;;;;2.13;1.20;;;;;;;25.15;60.55;100470.13;5076434;28;20067;-72
2022/08/19 08:42:05;;;;;;;3.00;1.13;;;;;;;25.14;60.58;100471.16;5075964;28;20404;-72
2022/08/19 08:44:49;;;;;;;3.55;1.33;;;;;;;25.14;60.05;100472.00;5076751;28;20048;-71
2022/08/19 08:47:21;;;;;;;3.45;1.70;;;;;;;25.13;59.88;100486.56;5076162;28;20052;-72
2022/08/19 08:49:49;;;;;;;2.90;1.30;;;;;;;25.12;60.36;100484.88;5076098;28;20071;-71
2022/08/19 08:52:28;;;;;;;3.45;1.35;;;;;;;25.11;60.19;100495.88;5074925;28;20048;-71
2022/08/19 08:55:05;;;;;;;3.92;1.20;;;;;;;25.10;59.98;100500.44;5076074;28;20048;-71
2022/08/19 08:57:50;;;;;;;3.30;1.40;;;;;;;25.08;59.74;100513.31;5075949;28;20052;-71
2022/08/19 09:00:24;;;;;;;4.80;1.70;;;;;;;25.06;60.01;100506.38;5075329;28;20055;-71
2022/08/19 09:02:51;;;;;;;8.55;1.85;;;;;;;25.05;59.72;100504.69;5075544;28;20044;-72
2022/08/19 09:05:22;;;;;;;4.22;1.63;;;;;;;25.06;60.59;100503.66;5076221;28;20472;-70
2022/08/19 09:08:13;;;;;;;3.55;1.50;;;;;;;25.06;60.42;100509.94;5075964;28;20056;-71
2022/08/19 09:10:47;;;;;;;3.10;1.42;;;;;;;25.07;60.12;100521.59;5076317;28;20037;-72
2022/08/19 09:13:48;;;;;;;3.45;1.40;;;;;;;25.07;59.78;100527.84;5075300;28;20041;-71
2022/08/19 09:16:20;;;;;;;4.75;1.60;;;;;;;25.06;59.10;100507.22;5076154;28;20044;-71
2022/08/19 09:18:58;;;;;;;4.00;1.50;;;;;;;25.03;59.02;100518.41;5074575;28;20045;-71
2022/08/19 09:21:27;;;;;;;3.00;1.23;;;;;;;25.01;59.11;100525.03;5074593;28;20056;-72
2022/08/19 09:24:01;;;;;;;3.30;1.92;;;;;;;25.00;59.14;100526.91;5075428;28;20037;-72
2022/08/19 09:26:32;;;;;;;2.88;1.70;;;;;;;24.98;58.95;100528.09;5075718;28;20049;-71
2022/08/19 09:29:20;;;;;;;2.83;1.52;;;;;;;25.00;59.13;100532.31;5075468;28;20048;-72
2022/08/19 09:31:49;;;;;;;4.10;1.27;;;;;;;25.05;59.30;100529.06;5075378;28;20041;-71
2022/08/19 09:34:19;;;;;;;4.20;1.90;;;;;;;25.10;59.62;100535.66;5075007;28;20067;-73
2022/08/19 09:36:54;;;;;;;6.03;1.27;;;;;;;25.15;59.40;100538.69;5075024;28;20040;-71
2022/08/19 09:39:22;;;;;;;4.47;1.58;;;;;;;25.21;59.19;100534.44;5074105;28;20048;-72
2022/08/19 09:41:49;;;;;;;3.22;1.40;;;;;;;25.27;59.23;100532.88;5074105;28;20048;-71
2022/08/19 09:44:19;;;;;;;2.55;1.30;;;;;;;25.31;59.09;100534.19;5072903;28;20051;-72
2022/08/19 09:46:50;;;;;;;2.47;1.27;;;;;;;25.36;58.97;100531.78;5074081;28;20423;-72
2022/08/19 09:49:21;;;;;;;3.70;1.20;;;;;;;25.39;58.99;100531.44;5074923;28;20053;-72
2022/08/19 09:51:54;;;;;;;4.25;1.45;;;;;;;25.40;58.89;100538.53;5074783;28;20055;-72
2022/08/19 09:54:23;;;;;;;3.07;1.30;;;;;;;25.44;58.81;100539.88;5075071;28;20412;-72
2022/08/19 09:56:54;;;;;;;2.63;1.38;;;;;;;25.47;58.90;100535.97;5074494;28;20048;-72
2022/08/19 09:59:22;;;;;;;3.10;1.30;;;;;;;25.49;58.70;100542.91;5073438;28;20411;-71
2022/08/19 10:01:51;;;;;;;3.65;1.17;;;;;;;25.51;58.83;100531.88;5074805;28;20048;-72
2022/08/19 10:04:20;;;;;;;4.63;1.65;;;;;;;25.53;58.74;100541.53;5073329;28;20052;-72
2022/08/19 10:06:51;;;;;;;7.55;1.55;;;;;;;25.54;58.82;100536.94;5074404;28;20044;-72
2022/08/19 10:09:21;;;;;;;2.72;1.40;;;;;;;25.56;58.77;100535.75;5075111;28;20052;-72
2022/08/19 10:12:02;;;;;;;2.95;1.55;;;;;;;25.57;58.54;100537.44;5075064;28;20047;-72
2022/08/19 10:14:30;;;;;;;2.30;1.27;;;;;;;25.59;58.57;100534.53;5074046;28;20044;-72
2022/08/19 10:17:00;;;;;;;3.28;1.35;;;;;;;25.60;58.55;100534.38;5074099;28;20052;-72
2022/08/19 10:19:35;;;;;;;;;;;;;;;25.62;58.73;100531.47;5074727;28;20048;-72
2022/08/19 10:22:06;;;;;;;3.08;1.38;;;;;;;25.62;58.56;100524.16;5074613;28;19920;-72
2022/08/19 10:24:38;;;;;;;3.47;1.40;;;;;;;25.64;58.50;100530.28;5074589;28;20048;-72
2022/08/19 10:27:09;;;;;;;2.90;1.55;;;;;;;25.64;58.59;100519.44;5074560;28;20052;-72
2022/08/19 10:29:37;;;;;;;2.53;1.10;;;;;;;25.65;58.25;100528.41;5073859;28;20041;-72
2022/08/19 10:32:12;;;;;;;3.50;1.45;;;;;;;25.66;58.39;100519.22;5074640;28;20051;-72
2022/08/19 10:34:40;;;;;;;2.97;1.15;;;;;;;25.69;58.60;100523.47;5074201;28;20075;-72
2022/08/19 10:37:17;;;;;;;4.85;1.27;;;;;;;25.68;58.43;100514.47;5073738;28;20480;-71
2022/08/19 10:39:57;;;;;;;2.22;1.00;;;;;;;25.69;58.45;100510.75;5074396;28;20499;-72
2022/08/19 10:42:24;;;;;;;2.20;1.52;;;;;;;25.69;58.50;100507.19;5073664;28;20052;-71
2022/08/19 10:44:52;;;;;;;3.00;1.30;;;;;;;25.71;58.28;100502.41;5073888;28;20500;-72
2022/08/19 10:47:20;;;;;;;3.97;1.20;;;;;;;25.72;58.29;100504.09;5073561;28;20488;-72
2022/08/19 10:52:42;;;;;;;3.97;1.38;;;;;;;25.73;58.25;100489.53;5074204;28;20048;-72
2022/08/19 10:58:14;;;;;;;2.85;1.17;;;;;;;25.73;58.34;100474.09;5074125;28;20476;-72
2022/08/19 11:00:45;;;;;;;2.45;1.20;;;;;;;25.75;58.29;100479.34;5074277;28;20055;-72
2022/08/19 11:03:12;;;;;;;2.10;1.30;;;;;;;25.74;58.28;100481.22;5073614;28;20515;-72
2022/08/19 11:05:41;;;;;;;2.58;1.25;;;;;;;25.76;58.23;100478.31;5072372;28;20487;-72
2022/08/19 11:08:11;;;;;;;2.35;1.17;;;;;;;25.77;58.38;100485.44;5073402;28;20048;-72
2022/08/19 11:11:00;;;;;;;3.55;1.10;;;;;;;25.76;58.19;100476.44;5074255;28;20048;-72
2022/08/19 11:13:29;;;;;;;2.25;1.00;;;;;;;25.77;58.18;100482.72;5073905;28;20048;-72
2022/08/19 11:16:06;;;;;;;4.35;1.42;;;;;;;25.78;58.24;100477.13;5073357;28;20052;-72
2022/08/19 11:18:39;;;;;;;2.75;1.50;;;;;;;25.78;58.15;100479.84;5072521;28;20048;-71
2022/08/19 11:21:23;;;;;;;3.72;1.35;;;;;;;25.79;58.17;100472.56;5073684;28;20399;-72
2022/08/19 11:23:53;;;;;;;2.03;1.33;;;;;;;25.80;58.19;100479.66;5072387;28;20060;-72
2022/08/19 11:26:23;;;;;;;1.95;1.20;;;;;;;25.80;58.14;100477.78;5073226;28;20048;-72
2022/08/19 11:28:53;;;;;;;2.63;1.45;;;;;;;25.80;58.17;100471.53;5073407;28;20483;-72
2022/08/19 11:31:24;;;;;;;1.63;1.00;;;;;;;25.80;57.94;100480.50;5074067;28;20064;-72
2022/08/19 11:34:01;;;;;;;3.28;1.10;;;;;;;25.82;58.17;100483.03;5073081;28;20060;-72
2022/08/19 11:36:30;;;;;;;2.85;1.10;;;;;;;25.81;58.12;100490.34;5071838;28;20048;-72
2022/08/19 11:38:58;;;;;;;3.00;1.10;;;;;;;25.82;58.10;100489.31;5074002;28;20527;-72
2022/08/19 11:41:26;;;;;;;2.72;1.33;;;;;;;25.83;58.13;100490.16;5073360;28;20056;-72
2022/08/19 11:43:55;;;;;;;4.10;1.10;;;;;;;25.82;58.14;100483.03;5073069;28;20040;-72
2022/08/19 11:46:24;;;;;;;1.98;1.00;;;;;;;25.83;58.08;100482.00;5071554;28;20056;-72
2022/08/19 11:48:51;;;;;;;2.58;1.23;;;;;;;25.83;58.16;100474.72;5076746;28;20052;-72
2022/08/19 11:51:24;;;;;;;2.70;1.35;;;;;;;25.84;58.23;100478.25;5076967;28;20403;-72
2022/08/19 11:53:53;;;;;;;2.95;1.10;;;;;;;25.85;57.97;100474.53;5077421;28;20048;-72
2022/08/19 11:56:22;;;;;;;1.50;1.00;;;;;;;25.85;58.10;100480.81;5077541;28;20056;-72
2022/08/19 11:58:49;;;;;;;2.08;1.05;;;;;;;25.84;57.99;100467.41;5077290;28;20055;-72
2022/08/19 12:01:19;;;;;;;2.35;1.20;;;;;;;25.85;58.05;100466.41;5075382;28;20044;-72
2022/08/19 12:03:48;;;;;;;1.77;1.00;;;;;;;25.86;57.89;100459.94;5076782;28;20053;-72